Time;durP1;ratioP1;P1;durP2;ratioP2;P2;SDS_P1;SDS_P2;PMS_P1;PMS_P2;Temp;Humidity;BMP_temperature;BMP_pressure;BME280_temperature;BME280_humidity;BME280_pressure;Samples;Min_cycle;Max_cycle;Signal;HPM_P1;HPM_P2
2021/05/26 00:02:08;;;;;;;2.10;0.80;;;17.20;99.90;;;;;;5055067;28;20193;-90
2021/05/26 00:04:39;;;;;;;1.20;0.63;;;17.30;99.90;;;;;;5057289;28;20200;-93
2021/05/26 00:07:13;;;;;;;0.70;0.67;;;17.10;99.90;;;;;;5055096;28;20274;-91
2021/05/26 00:09:44;;;;;;;2.50;0.60;;;17.40;99.90;;;;;;5039428;28;20273;-92
2021/05/26 00:12:15;;;;;;;1.43;0.60;;;17.60;99.90;;;;;;5039701;28;20271;-92
2021/05/26 00:14:53;;;;;;;2.00;0.63;;;18.10;99.90;;;;;;5044753;28;20200;-87
2021/05/26 00:17:24;;;;;;;0.67;0.40;;;18.10;99.90;;;;;;5035882;28;20209;-91
2021/05/26 00:19:55;;;;;;;1.43;0.57;;;17.90;99.90;;;;;;5043387;28;20216;-90
2021/05/26 00:22:27;;;;;;;0.40;0.40;;;17.80;99.90;;;;;;5042370;28;20297;-90
2021/05/26 00:24:58;;;;;;;0.80;0.53;;;17.90;99.90;;;;;;5049804;28;20220;-93
2021/05/26 00:27:29;;;;;;;1.93;0.57;;;18.20;99.90;;;;;;5060250;28;20232;-95
2021/05/26 00:30:01;;;;;;;0.73;0.50;;;18.40;99.90;;;;;;5071007;28;20669;-91
2021/05/26 00:32:32;;;;;;;0.70;0.40;;;18.70;99.90;;;;;;5053457;28;20255;-92
2021/05/26 00:35:09;;;;;;;0.70;0.50;;;18.60;99.90;;;;;;5053048;28;20268;-93
2021/05/26 00:37:41;;;;;;;1.50;0.40;;;18.80;99.90;;;;;;5048490;28;20567;-92
2021/05/26 00:40:13;;;;;;;0.80;0.57;;;18.60;99.90;;;;;;5045571;28;20212;-86
2021/05/26 00:42:44;;;;;;;0.87;0.40;;;18.50;99.90;;;;;;5043260;28;20583;-89
2021/05/26 00:45:18;;;;;;;0.33;0.33;;;18.60;99.90;;;;;;5047300;28;20307;-93
2021/05/26 00:47:51;;;;;;;0.50;0.40;;;18.60;99.90;;;;;;5052410;28;20244;-93
2021/05/26 00:50:24;;;;;;;0.43;0.33;;;18.80;99.90;;;;;;5051244;28;20209;-92
2021/05/26 00:53:05;;;;;;;0.47;0.30;;;18.80;99.90;;;;;;5057212;28;20303;-90
2021/05/26 00:55:37;;;;;;;0.20;0.20;;;18.90;99.90;;;;;;5051451;28;20216;-95
2021/05/26 00:58:09;;;;;;;0.33;0.20;;;19.20;99.90;;;;;;5047513;28;20239;-89
2021/05/26 01:00:40;;;;;;;0.70;0.40;;;20.00;99.90;;;;;;5043394;28;20253;-87
2021/05/26 01:03:11;;;;;;;0.77;0.40;;;19.80;99.90;;;;;;5041100;28;20736;-89
2021/05/26 01:05:41;;;;;;;0.70;0.30;;;19.40;99.90;;;;;;5043089;28;20244;-90
2021/05/26 01:08:14;;;;;;;0.50;0.40;;;19.00;99.90;;;;;;5044680;28;20232;-90
2021/05/26 01:10:47;;;;;;;1.00;0.70;;;18.80;99.90;;;;;;5041844;28;20239;-88
2021/05/26 01:13:19;;;;;;;1.57;0.60;;;18.80;99.90;;;;;;5043977;28;20216;-87
2021/05/26 01:15:49;;;;;;;1.10;0.77;;;18.70;99.90;;;;;;5039983;28;20221;-88
2021/05/26 01:18:25;;;;;;;1.33;0.70;;;18.60;99.90;;;;;;5039582;28;20217;-89
2021/05/26 01:20:58;;;;;;;2.00;0.67;;;18.40;99.90;;;;;;5038445;28;20205;-90
2021/05/26 01:23:30;;;;;;;1.63;0.50;;;18.20;99.90;;;;;;5037849;28;20205;-91
2021/05/26 01:26:04;;;;;;;0.97;0.70;;;17.90;99.90;;;;;;5035608;28;20216;-84
2021/05/26 01:28:36;;;;;;;1.43;0.80;;;17.70;99.90;;;;;;5032904;28;20634;-84
2021/05/26 01:31:06;;;;;;;1.37;0.70;;;17.50;99.90;;;;;;5032225;28;20283;-83
2021/05/26 01:33:36;;;;;;;0.80;0.80;;;17.40;99.90;;;;;;5032950;28;20709;-84
2021/05/26 01:36:07;;;;;;;0.90;0.87;;;17.20;99.90;;;;;;5035501;28;20244;-89
2021/05/26 01:38:38;;;;;;;1.90;0.70;;;16.90;99.90;;;;;;5046863;28;20651;-89
2021/05/26 01:41:08;;;;;;;0.87;0.73;;;16.50;99.90;;;;;;5065879;28;20230;-89
2021/05/26 01:43:39;;;;;;;1.47;1.00;;;16.40;99.90;;;;;;5073548;28;20240;-96
2021/05/26 01:46:11;;;;;;;0.80;0.70;;;16.40;99.90;;;;;;5045837;28;20214;-96
2021/05/26 01:48:47;;;;;;;1.10;0.70;;;16.30;99.90;;;;;;5018755;28;20733;-95
2021/05/26 01:51:19;;;;;;;0.50;0.50;;;16.10;99.90;;;;;;5024078;28;20221;-92
2021/05/26 01:53:53;;;;;;;1.30;0.73;;;16.10;99.90;;;;;;5024862;28;20232;-93
2021/05/26 01:56:25;;;;;;;1.30;0.80;;;16.00;99.90;;;;;;5037966;28;20243;-93
2021/05/26 01:58:57;;;;;;;4.90;0.87;;;16.00;99.90;;;;;;5020545;28;20227;-87
2021/05/26 02:01:29;;;;;;;0.70;0.60;;;16.10;99.90;;;;;;5039430;28;20285;-94
2021/05/26 02:04:00;;;;;;;0.80;0.80;;;16.10;99.90;;;;;;5037756;28;20201;-93
2021/05/26 02:06:33;;;;;;;0.87;0.83;;;16.10;99.90;;;;;;5037783;28;20240;-94
2021/05/26 02:09:07;;;;;;;1.60;0.80;;;16.00;99.90;;;;;;5037345;28;20308;-94
2021/05/26 02:14:26;;;;;;;0.80;0.70;;;15.80;99.90;;;;;;5038186;28;20212;-93
2021/05/26 02:16:58;;;;;;;1.10;0.80;;;15.80;99.90;;;;;;5036743;28;20785;-93
2021/05/26 02:19:29;;;;;;;1.70;0.83;;;15.80;99.90;;;;;;5037595;28;20201;-93
2021/05/26 02:22:00;;;;;;;3.77;0.77;;;15.80;99.90;;;;;;5036976;28;20240;-93
2021/05/26 02:24:35;;;;;;;1.50;0.80;;;15.80;99.90;;;;;;5038394;28;20655;-94
2021/05/26 02:27:06;;;;;;;0.77;0.77;;;15.80;99.90;;;;;;5037039;28;20283;-93
2021/05/26 02:29:38;;;;;;;2.83;0.70;;;15.80;99.90;;;;;;5036964;28;20236;-93
2021/05/26 02:32:10;;;;;;;1.77;0.77;;;15.80;99.90;;;;;;5036352;28;20288;-94
2021/05/26 02:34:41;;;;;;;0.80;0.80;;;15.70;99.90;;;;;;5020301;28;20209;-94
2021/05/26 02:37:12;;;;;;;0.70;0.70;;;15.50;99.90;;;;;;5019762;28;20237;-95
2021/05/26 02:39:45;;;;;;;0.60;0.60;;;15.40;99.90;;;;;;5031048;28;20225;-96
2021/05/26 02:42:16;;;;;;;0.70;0.70;;;15.40;99.90;;;;;;4999999;28;20201;-93
2021/05/26 02:44:48;;;;;;;1.20;0.77;;;15.30;99.90;;;;;;4999629;28;20240;-93
2021/05/26 02:47:18;;;;;;;0.50;0.50;;;15.30;99.90;;;;;;5025133;28;20248;-92
2021/05/26 02:49:49;;;;;;;1.23;0.67;;;15.20;99.90;;;;;;5035734;28;20752;-92
2021/05/26 02:52:20;;;;;;;1.30;0.43;;;15.20;99.90;;;;;;5021790;28;20710;-91
2021/05/26 02:54:53;;;;;;;2.93;0.73;;;15.20;99.90;;;;;;5036315;28;20228;-91
2021/05/26 02:57:24;;;;;;;0.50;0.50;;;15.20;99.90;;;;;;5036611;28;20239;-91
2021/05/26 02:59:56;;;;;;;2.10;0.60;;;15.20;99.90;;;;;;5036244;28;20271;-92
2021/05/26 03:02:27;;;;;;;0.67;0.40;;;15.20;99.90;;;;;;5021800;28;20718;-92
2021/05/26 03:04:58;;;;;;;0.80;0.50;;;15.10;99.90;;;;;;5038407;28;20239;-91
2021/05/26 03:07:29;;;;;;;1.70;0.50;;;15.00;99.90;;;;;;5044217;28;20236;-92
2021/05/26 03:10:02;;;;;;;0.50;0.50;;;15.10;99.90;;;;;;5041789;28;20236;-90
2021/05/26 03:12:33;;;;;;;0.63;0.50;;;15.10;99.90;;;;;;5021601;28;20209;-91
2021/05/26 03:15:06;;;;;;;0.80;0.37;;;14.90;99.90;;;;;;5037704;28;20213;-91
2021/05/26 03:17:38;;;;;;;1.00;0.70;;;14.90;99.90;;;;;;5036988;28;20209;-91
2021/05/26 03:20:11;;;;;;;4.03;0.40;;;14.90;99.90;;;;;;5035351;28;20251;-92
2021/05/26 03:22:42;;;;;;;0.50;0.30;;;14.90;99.90;;;;;;5036081;28;20205;-92
2021/05/26 03:25:16;;;;;;;0.40;0.40;;;14.80;99.90;;;;;;5034934;28;20263;-92
2021/05/26 03:27:48;;;;;;;0.50;0.40;;;14.70;99.90;;;;;;5029636;28;20265;-92
2021/05/26 03:30:21;;;;;;;0.70;0.40;;;14.70;99.90;;;;;;5035448;28;20205;-92
2021/05/26 03:32:52;;;;;;;1.50;0.53;;;14.60;99.90;;;;;;5036989;28;20204;-92
2021/05/26 03:35:23;;;;;;;0.40;0.40;;;14.50;99.90;;;;;;5036161;28;20262;-90
2021/05/26 03:37:54;;;;;;;0.70;0.40;;;14.50;99.90;;;;;;5035860;28;20267;-91
2021/05/26 03:40:27;;;;;;;2.07;0.40;;;14.40;99.90;;;;;;5032549;28;20213;-82
2021/05/26 03:43:02;;;;;;;1.40;0.50;;;14.30;99.90;;;;;;5033032;28;20208;-84
2021/05/26 03:45:33;;;;;;;0.70;0.50;;;14.30;99.90;;;;;;5031317;28;20731;-83
2021/05/26 03:48:04;;;;;;;1.80;0.50;;;14.30;99.90;;;;;;5027652;28;20292;-82
2021/05/26 03:50:35;;;;;;;1.70;0.40;;;14.20;99.90;;;;;;5032231;28;20623;-83
2021/05/26 03:53:07;;;;;;;0.50;0.50;;;14.20;99.90;;;;;;5033837;28;20247;-83
2021/05/26 03:55:38;;;;;;;0.70;0.40;;;14.20;99.90;;;;;;5033855;28;20248;-83
2021/05/26 03:58:08;;;;;;;0.40;0.40;;;14.10;99.90;;;;;;5049672;28;20216;-82
2021/05/26 04:00:39;;;;;;;1.53;0.43;;;14.10;99.90;;;;;;5049138;28;20683;-83
2021/05/26 04:03:14;;;;;;;3.70;0.57;;;14.10;99.90;;;;;;5045738;28;20205;-83
2021/05/26 04:05:44;;;;;;;1.20;0.40;;;14.00;99.90;;;;;;5035283;28;20212;-84
2021/05/26 04:08:15;;;;;;;1.60;0.40;;;13.90;99.90;;;;;;5039348;28;20592;-83
2021/05/26 04:10:46;;;;;;;0.60;0.60;;;14.00;99.90;;;;;;5037031;28;20235;-83
2021/05/26 04:13:17;;;;;;;2.63;0.60;;;13.90;99.90;;;;;;5036584;28;20690;-83
2021/05/26 04:15:48;;;;;;;0.43;0.30;;;13.90;99.90;;;;;;5036456;28;20205;-84
2021/05/26 04:18:18;;;;;;;0.80;0.40;;;13.90;99.90;;;;;;5027852;28;20209;-84
2021/05/26 04:20:49;;;;;;;1.13;0.40;;;13.90;99.90;;;;;;5016214;28;20206;-83
2021/05/26 04:23:19;;;;;;;0.40;0.30;;;13.90;99.90;;;;;;5016166;28;20214;-83
2021/05/26 04:25:51;;;;;;;0.77;0.50;;;13.90;99.90;;;;;;5025081;28;20636;-83
2021/05/26 04:28:22;;;;;;;1.90;0.60;;;13.80;99.90;;;;;;5033499;28;20213;-83
2021/05/26 04:30:52;;;;;;;0.60;0.40;;;13.80;99.90;;;;;;5023410;28;20209;-84
2021/05/26 04:33:23;;;;;;;1.03;0.40;;;13.70;99.90;;;;;;5015638;28;20217;-83
2021/05/26 04:35:53;;;;;;;1.07;0.50;;;13.70;99.90;;;;;;5031038;28;20320;-83
2021/05/26 04:38:23;;;;;;;0.63;0.53;;;13.60;99.90;;;;;;5033909;28;20232;-83
2021/05/26 04:40:54;;;;;;;0.87;0.43;;;13.50;99.90;;;;;;5033197;28;20603;-82
2021/05/26 04:43:25;;;;;;;0.60;0.50;;;13.50;99.90;;;;;;5034119;28;20208;-83
2021/05/26 04:45:55;;;;;;;0.40;0.37;;;13.50;99.90;;;;;;5033765;28;20205;-82
2021/05/26 04:48:25;;;;;;;1.17;0.60;;;13.50;99.90;;;;;;5034495;28;20255;-83
2021/05/26 04:50:56;;;;;;;0.80;0.50;;;13.40;99.90;;;;;;5033617;28;20216;-83
2021/05/26 04:53:26;;;;;;;0.87;0.47;;;13.40;99.90;;;;;;5036382;28;20279;-82
2021/05/26 04:55:59;;;;;;;1.50;0.60;;;13.30;99.90;;;;;;5034780;28;20290;-83
2021/05/26 04:58:30;;;;;;;0.67;0.60;;;13.30;99.90;;;;;;5035216;28;20247;-82
2021/05/26 05:01:01;;;;;;;1.23;0.53;;;13.20;99.90;;;;;;5033475;28;20220;-83
2021/05/26 05:03:33;;;;;;;0.43;0.40;;;13.10;99.90;;;;;;5034592;28;20209;-83
2021/05/26 05:06:05;;;;;;;1.20;0.50;;;13.10;99.90;;;;;;5034093;28;20213;-84
2021/05/26 05:08:37;;;;;;;1.57;0.60;;;13.10;99.90;;;;;;5034640;28;20235;-83
2021/05/26 05:11:10;;;;;;;1.30;0.57;;;13.10;99.90;;;;;;5033918;28;20228;-83
2021/05/26 05:13:41;;;;;;;0.97;0.53;;;13.10;99.90;;;;;;5036290;28;20578;-83
2021/05/26 05:16:11;;;;;;;0.93;0.63;;;13.10;99.90;;;;;;5035687;28;20271;-83
2021/05/26 05:18:41;;;;;;;0.80;0.57;;;13.10;99.90;;;;;;5034761;28;20236;-82
2021/05/26 05:21:12;;;;;;;0.73;0.60;;;13.00;99.90;;;;;;5033659;28;20656;-83
2021/05/26 05:23:42;;;;;;;0.40;0.40;;;13.00;99.90;;;;;;5034109;28;20296;-83
2021/05/26 05:26:13;;;;;;;1.03;0.67;;;13.00;99.90;;;;;;5034078;28;20209;-83
2021/05/26 05:28:43;;;;;;;1.17;0.80;;;12.90;99.90;;;;;;5033953;28;20292;-83
2021/05/26 05:31:13;;;;;;;1.70;0.60;;;12.90;99.90;;;;;;5033101;28;20671;-83
2021/05/26 05:33:44;;;;;;;1.77;0.70;;;12.80;99.90;;;;;;5034144;28;20280;-83
2021/05/26 05:36:14;;;;;;;0.53;0.50;;;12.80;99.90;;;;;;5034295;28;20213;-84
2021/05/26 05:38:44;;;;;;;1.33;0.60;;;12.70;99.90;;;;;;5033688;28;20251;-84
2021/05/26 05:41:15;;;;;;;1.90;0.70;;;12.60;99.90;;;;;;5051140;28;20258;-83
2021/05/26 05:43:45;;;;;;;1.83;0.63;;;12.60;99.90;;;;;;5053261;28;20213;-83
2021/05/26 05:46:15;;;;;;;1.87;0.60;;;12.50;99.90;;;;;;5053611;28;20204;-83
2021/05/26 05:48:46;;;;;;;0.70;0.60;;;12.50;99.90;;;;;;5051706;28;20292;-83
2021/05/26 05:51:16;;;;;;;0.60;0.60;;;12.50;99.90;;;;;;5034337;28;20240;-83
2021/05/26 05:53:46;;;;;;;2.10;0.63;;;12.50;99.90;;;;;;5033547;28;20241;-83
2021/05/26 05:56:17;;;;;;;1.00;0.70;;;12.50;99.90;;;;;;5033913;28;20274;-83
2021/05/26 05:59:04;;;;;;;2.20;0.70;;;12.50;99.90;;;;;;5035227;28;20228;-88
2021/05/26 06:01:36;;;;;;;0.63;0.57;;;12.50;99.90;;;;;;5034642;28;20228;-88
2021/05/26 06:04:07;;;;;;;0.90;0.70;;;12.40;99.90;;;;;;5035898;28;20204;-88
2021/05/26 06:06:38;;;;;;;1.37;0.50;;;12.40;99.90;;;;;;5036372;28;20201;-88
2021/05/26 06:09:08;;;;;;;2.03;0.60;;;12.30;99.90;;;;;;5035794;28;20266;-88
2021/05/26 06:11:40;;;;;;;0.83;0.50;;;12.30;99.90;;;;;;5036649;28;20272;-87
2021/05/26 06:14:19;;;;;;;3.03;1.03;;;12.30;99.90;;;;;;5038566;28;20232;-88
2021/05/26 06:16:49;;;;;;;2.70;0.73;;;12.20;99.90;;;;;;5055032;28;20245;-89
2021/05/26 06:19:19;;;;;;;0.67;0.50;;;12.10;99.90;;;;;;5054823;28;20193;-88
2021/05/26 06:21:50;;;;;;;0.83;0.53;;;12.10;99.90;;;;;;5044422;28;20275;-89
2021/05/26 06:24:22;;;;;;;1.20;0.63;;;12.10;99.90;;;;;;5022458;28;20255;-89
2021/05/26 06:26:54;;;;;;;0.70;0.60;;;12.00;99.90;;;;;;5035454;28;20729;-88
2021/05/26 06:29:25;;;;;;;0.93;0.70;;;11.90;99.90;;;;;;5034481;28;20687;-88
2021/05/26 06:31:57;;;;;;;1.43;0.60;;;11.90;99.90;;;;;;5040064;28;20209;-88
2021/05/26 06:34:29;;;;;;;0.77;0.70;;;11.90;99.90;;;;;;5036900;28;20214;-89
2021/05/26 06:37:01;;;;;;;1.00;0.50;;;11.80;99.90;;;;;;5036506;28;20716;-88
2021/05/26 06:39:31;;;;;;;1.60;0.60;;;11.80;99.90;;;;;;5034757;28;20307;-88
2021/05/26 06:42:02;;;;;;;2.57;0.60;;;11.80;99.90;;;;;;5033290;28;20208;-88
2021/05/26 06:44:33;;;;;;;1.30;0.50;;;11.80;99.90;;;;;;5033222;28;20220;-89
2021/05/26 06:47:04;;;;;;;1.67;0.70;;;11.70;99.90;;;;;;5036908;28;20201;-87
2021/05/26 06:49:35;;;;;;;1.00;0.50;;;11.80;99.90;;;;;;5037487;28;20264;-87
2021/05/26 06:52:07;;;;;;;1.03;0.57;;;11.80;99.90;;;;;;5042642;28;20216;-88
2021/05/26 06:54:40;;;;;;;2.83;0.70;;;11.70;99.90;;;;;;5038855;28;20209;-87
2021/05/26 06:57:13;;;;;;;1.17;0.43;;;11.70;99.90;;;;;;5034390;28;20295;-88
2021/05/26 06:59:53;;;;;;;1.67;0.63;;;11.70;99.90;;;;;;5036237;28;20327;-89
2021/05/26 07:02:27;;;;;;;2.13;0.57;;;11.70;99.90;;;;;;5041080;28;20303;-94
2021/05/26 07:04:57;;;;;;;1.90;0.60;;;11.60;99.90;;;;;;5038546;28;20213;-93
2021/05/26 07:07:28;;;;;;;1.00;0.63;;;11.60;99.90;;;;;;5029086;28;20205;-94
2021/05/26 07:10:00;;;;;;;1.60;0.50;;;11.50;99.90;;;;;;5017513;28;20264;-95
2021/05/26 07:12:35;;;;;;;1.10;0.60;;;11.50;99.90;;;;;;5008074;28;20679;-95
2021/05/26 07:15:08;;;;;;;1.10;0.40;;;11.50;99.90;;;;;;5016162;28;20228;-95
2021/05/26 07:17:39;;;;;;;1.03;0.73;;;11.40;99.90;;;;;;4999984;28;20230;-95
2021/05/26 07:20:12;;;;;;;0.73;0.50;;;11.40;99.90;;;;;;5015966;28;20271;-94
2021/05/26 07:22:43;;;;;;;1.47;0.50;;;11.30;99.90;;;;;;5016263;28;20345;-95
2021/05/26 07:25:15;;;;;;;3.70;0.77;;;11.30;99.90;;;;;;5024677;28;20201;-94
2021/05/26 07:27:48;;;;;;;0.87;0.60;;;11.30;99.90;;;;;;5029842;28;20213;-96
2021/05/26 07:30:22;;;;;;;0.93;0.60;;;11.30;99.90;;;;;;5035666;28;20229;-95
2021/05/26 07:32:53;;;;;;;1.30;0.70;;;11.30;99.90;;;;;;5038226;28;20815;-94
2021/05/26 07:35:26;;;;;;;0.73;0.57;;;11.30;99.90;;;;;;5031978;28;20213;-94
2021/05/26 07:37:57;;;;;;;2.90;0.60;;;11.20;99.90;;;;;;5039962;28;20247;-94
2021/05/26 07:40:28;;;;;;;2.20;0.60;;;11.20;99.90;;;;;;5040710;28;20209;-93
2021/05/26 07:43:01;;;;;;;0.60;0.60;;;11.20;99.90;;;;;;5040442;28;20608;-94
2021/05/26 07:45:32;;;;;;;0.97;0.50;;;11.20;99.90;;;;;;5048787;28;20216;-93
2021/05/26 07:48:03;;;;;;;1.53;0.63;;;11.10;99.90;;;;;;5050043;28;20473;-95
2021/05/26 07:50:35;;;;;;;2.23;0.77;;;11.10;99.90;;;;;;5049270;28;20271;-94
2021/05/26 07:53:08;;;;;;;0.90;0.50;;;11.10;99.90;;;;;;5051135;28;20255;-96
2021/05/26 07:55:39;;;;;;;2.53;0.70;;;11.10;99.90;;;;;;5058864;28;20571;-96
2021/05/26 07:58:11;;;;;;;2.53;0.70;;;11.00;99.90;;;;;;5040597;28;20205;-95
2021/05/26 08:00:42;;;;;;;1.60;0.73;;;10.90;99.90;;;;;;5022604;28;20732;-95
2021/05/26 08:03:14;;;;;;;2.10;0.50;;;10.90;99.90;;;;;;5033723;28;20216;-95
2021/05/26 08:05:44;;;;;;;0.97;0.50;;;10.90;99.90;;;;;;5036800;28;20600;-95
2021/05/26 08:08:15;;;;;;;2.67;0.60;;;10.90;99.90;;;;;;5038937;28;20251;-95
2021/05/26 08:10:48;;;;;;;3.97;0.77;;;10.90;99.90;;;;;;5038524;28;20260;-95
2021/05/26 08:13:21;;;;;;;1.53;0.73;;;10.90;99.90;;;;;;5038586;28;20215;-94
2021/05/26 08:15:52;;;;;;;1.37;0.50;;;10.80;99.90;;;;;;5038319;28;20224;-95
2021/05/26 08:18:24;;;;;;;1.30;0.60;;;10.80;99.90;;;;;;5005876;28;20210;-95
2021/05/26 08:20:54;;;;;;;2.17;0.73;;;10.80;99.90;;;;;;5019555;28;20547;-94
2021/05/26 08:23:46;;;;;;;1.37;0.77;;;10.80;99.90;;;;;;5006762;28;20205;-95
2021/05/26 08:26:22;;;;;;;1.30;0.50;;;10.80;99.90;;;;;;5017056;28;20214;-94
2021/05/26 08:28:55;;;;;;;1.47;0.50;;;10.80;99.90;;;;;;5019801;28;20212;-94
2021/05/26 08:31:29;;;;;;;0.57;0.40;;;10.80;99.90;;;;;;5019711;28;20239;-94
2021/05/26 08:34:00;;;;;;;2.50;1.40;;;10.70;99.90;;;;;;5038366;28;20252;-95
2021/05/26 08:36:31;;;;;;;3.03;0.80;;;10.70;99.90;;;;;;5039526;28;20224;-93
2021/05/26 08:39:02;;;;;;;0.70;0.70;;;10.70;99.90;;;;;;5047150;28;20205;-93
2021/05/26 08:41:33;;;;;;;2.40;0.70;;;10.60;99.90;;;;;;5057230;28;20208;-95
2021/05/26 08:44:08;;;;;;;0.67;0.50;;;10.70;99.90;;;;;;5053630;28;20231;-94
2021/05/26 08:46:39;;;;;;;0.93;0.40;;;10.60;99.90;;;;;;5041236;28;20204;-95
2021/05/26 08:49:11;;;;;;;2.20;0.80;;;10.60;99.90;;;;;;5041209;28;20629;-93
2021/05/26 08:51:43;;;;;;;3.73;0.70;;;10.60;99.90;;;;;;5038703;28;20236;-94
2021/05/26 08:54:38;;;;;;;0.80;0.70;;;10.60;99.90;;;;;;5042994;28;20224;-94
2021/05/26 08:57:10;;;;;;;1.10;0.60;;;10.50;99.90;;;;;;5038179;28;20687;-94
2021/05/26 08:59:44;;;;;;;1.60;0.70;;;10.50;99.90;;;;;;5038319;28;20248;-94
2021/05/26 09:02:18;;;;;;;0.60;0.60;;;10.50;99.90;;;;;;5021174;28;20234;-95
2021/05/26 09:04:50;;;;;;;1.57;0.60;;;10.50;99.90;;;;;;5037417;28;20621;-95
2021/05/26 09:07:24;;;;;;;2.90;0.80;;;10.40;99.90;;;;;;5038201;28;20209;-94
2021/05/26 09:09:57;;;;;;;1.40;0.60;;;10.40;99.90;;;;;;5037130;28;20232;-94
2021/05/26 09:12:31;;;;;;;1.93;0.93;;;10.40;99.90;;;;;;5037699;28;20217;-94
2021/05/26 09:15:10;;;;;;;1.07;0.60;;;10.30;99.90;;;;;;5036599;28;20212;-94
2021/05/26 09:17:41;;;;;;;1.43;0.70;;;10.30;99.90;;;;;;5037740;28;20236;-94
2021/05/26 09:20:17;;;;;;;1.43;0.70;;;10.30;99.90;;;;;;5038195;28;20240;-94
2021/05/26 09:23:03;;;;;;;0.97;0.67;;;10.40;99.90;;;;;;5038141;28;20639;-95
2021/05/26 09:25:36;;;;;;;2.03;0.50;;;10.40;99.90;;;;;;5037836;28;20689;-94
2021/05/26 09:28:25;;;;;;;2.17;0.60;;;10.40;99.90;;;;;;5038421;28;20212;-94
2021/05/26 09:30:59;;;;;;;0.90;0.67;;;10.50;99.90;;;;;;5037626;28;20232;-95
2021/05/26 09:33:35;;;;;;;2.20;0.80;;;10.60;99.90;;;;;;5037506;28;20236;-94
2021/05/26 09:36:14;;;;;;;0.73;0.60;;;10.70;99.90;;;;;;5036889;28;20732;-94
2021/05/26 09:38:47;;;;;;;3.57;0.70;;;10.60;99.90;;;;;;5037453;28;20240;-94
2021/05/26 09:41:24;;;;;;;0.60;0.60;;;10.70;99.90;;;;;;5036891;28;20266;-95
2021/05/26 09:43:56;;;;;;;2.13;0.60;;;10.80;99.90;;;;;;5045053;28;20208;-94
2021/05/26 09:46:38;;;;;;;0.93;0.73;;;10.80;99.90;;;;;;5057755;28;20205;-95
2021/05/26 09:49:16;;;;;;;1.40;0.70;;;10.90;99.90;;;;;;5057971;28;20295;-94
2021/05/26 09:51:51;;;;;;;2.20;0.70;;;11.00;99.90;;;;;;5040290;28;20662;-94
2021/05/26 09:54:24;;;;;;;2.07;0.90;;;11.00;99.90;;;;;;5036661;28;20666;-94
2021/05/26 09:56:55;;;;;;;2.37;0.73;;;11.00;99.90;;;;;;5037695;28;20213;-94
2021/05/26 09:59:27;;;;;;;2.60;0.80;;;10.90;99.90;;;;;;5037482;28;20631;-95
2021/05/26 10:02:01;;;;;;;1.77;0.90;;;11.00;99.90;;;;;;5037291;28;20232;-95
2021/05/26 10:04:32;;;;;;;1.47;0.70;;;11.00;99.90;;;;;;5036291;28;20243;-94
2021/05/26 10:07:07;;;;;;;1.00;0.77;;;11.00;99.90;;;;;;5020766;28;20240;-94
2021/05/26 10:09:39;;;;;;;3.10;0.80;;;11.00;99.90;;;;;;5036882;28;20216;-95
2021/05/26 10:12:13;;;;;;;1.37;0.93;;;11.10;99.90;;;;;;5036583;28;20233;-94
2021/05/26 10:14:46;;;;;;;1.93;0.73;;;11.00;99.90;;;;;;5036425;28;20278;-95
2021/05/26 10:17:24;;;;;;;2.00;0.77;;;11.10;99.90;;;;;;5037022;28;20730;-94
2021/05/26 10:19:55;;;;;;;2.10;0.70;;;11.20;99.90;;;;;;5019675;28;20209;-95
2021/05/26 10:22:26;;;;;;;0.60;0.60;;;11.20;99.90;;;;;;5020589;28;20243;-94
2021/05/26 10:24:57;;;;;;;1.23;0.70;;;11.20;99.90;;;;;;5036408;28;20217;-94
2021/05/26 10:27:35;;;;;;;0.83;0.67;;;11.20;99.90;;;;;;5036443;28;20213;-95
2021/05/26 10:30:08;;;;;;;2.43;0.80;;;11.20;99.90;;;;;;5036724;28;20205;-93
2021/05/26 10:32:58;;;;;;;2.30;0.80;;;11.20;99.90;;;;;;5036804;28;20651;-95
2021/05/26 10:35:30;;;;;;;3.30;0.70;;;11.20;99.90;;;;;;5036280;28;20209;-94
2021/05/26 10:38:05;;;;;;;2.67;0.83;;;11.10;99.90;;;;;;5019135;28;20240;-94
2021/05/26 10:40:41;;;;;;;1.97;0.70;;;11.10;99.90;;;;;;5036586;28;20737;-94
2021/05/26 10:43:35;;;;;;;0.60;0.60;;;11.10;99.90;;;;;;5037641;28;20240;-94
2021/05/26 10:46:07;;;;;;;2.30;0.67;;;11.20;99.90;;;;;;5038842;28;20208;-93
2021/05/26 10:49:05;;;;;;;1.53;0.70;;;11.30;99.90;;;;;;5040484;28;20240;-94
2021/05/26 10:52:11;;;;;;;0.80;0.70;;;11.30;99.90;;;;;;5043854;28;20247;-94
2021/05/26 10:55:02;;;;;;;1.53;0.70;;;11.20;99.90;;;;;;5050456;28;20213;-94
2021/05/26 10:57:56;;;;;;;1.43;0.90;;;11.20;99.90;;;;;;5056206;28;20212;-95
2021/05/26 11:00:31;;;;;;;2.60;0.80;;;11.20;99.90;;;;;;5052422;28;20217;-94
2021/05/26 11:03:41;;;;;;;1.00;0.80;;;11.20;99.90;;;;;;5042953;28;20228;-93
2021/05/26 11:06:42;;;;;;;2.33;0.70;;;11.20;99.90;;;;;;5039070;28;20208;-94
2021/05/26 11:09:13;;;;;;;1.70;0.60;;;11.20;99.90;;;;;;5036969;28;20240;-94
2021/05/26 11:11:56;;;;;;;1.83;0.70;;;11.20;99.90;;;;;;5035251;28;20651;-94
2021/05/26 11:14:28;;;;;;;2.27;0.80;;;11.20;99.90;;;;;;5035434;28;20215;-93
2021/05/26 11:17:22;;;;;;;1.13;0.67;;;11.30;99.90;;;;;;5034790;28;20224;-93
2021/05/26 11:20:05;;;;;;;1.60;0.60;;;11.20;99.90;;;;;;5035584;28;20240;-94
2021/05/26 11:22:38;;;;;;;0.83;0.60;;;11.20;99.90;;;;;;5036010;28;20217;-93
2021/05/26 11:25:11;;;;;;;4.27;0.80;;;11.20;99.90;;;;;;5035530;28;20291;-95
2021/05/26 11:27:53;;;;;;;2.17;0.67;;;11.20;99.90;;;;;;5036677;28;20212;-94
2021/05/26 11:30:26;;;;;;;3.33;0.70;;;11.10;99.90;;;;;;5036011;28;20215;-94
2021/05/26 11:33:01;;;;;;;2.60;0.50;;;11.20;99.90;;;;;;5018912;28;20216;-94
2021/05/26 11:35:32;;;;;;;0.87;0.60;;;11.10;99.90;;;;;;5036039;28;20266;-94
2021/05/26 11:38:05;;;;;;;3.50;0.70;;;11.10;99.90;;;;;;5036460;28;20296;-94
2021/05/26 11:40:36;;;;;;;1.57;0.60;;;11.10;99.90;;;;;;5036638;28;20213;-94
2021/05/26 11:43:15;;;;;;;2.20;0.73;;;11.10;99.90;;;;;;5036937;28;20239;-94
2021/05/26 11:45:46;;;;;;;3.30;0.70;;;11.10;99.90;;;;;;5035768;28;20205;-93
2021/05/26 11:48:22;;;;;;;1.50;0.63;;;11.10;99.90;;;;;;5018261;28;20612;-95
2021/05/26 11:50:53;;;;;;;1.53;0.60;;;11.00;99.90;;;;;;5016124;28;20236;-95
2021/05/26 11:53:27;;;;;;;1.00;0.60;;;11.10;99.90;;;;;;5016314;28;20206;-94
2021/05/26 11:56:05;;;;;;;4.40;0.70;;;11.10;99.90;;;;;;5016900;28;20676;-95
2021/05/26 11:58:40;;;;;;;3.30;0.60;;;11.00;99.90;;;;;;5016592;28;20314;-94
2021/05/26 12:01:14;;;;;;;1.70;0.70;;;11.00;99.90;;;;;;5016529;28;20672;-95
2021/05/26 12:03:47;;;;;;;0.67;0.57;;;11.00;99.90;;;;;;5015262;28;20292;-95
2021/05/26 12:06:23;;;;;;;0.60;0.60;;;11.00;99.90;;;;;;5021330;28;20220;-94
2021/05/26 12:08:56;;;;;;;2.13;0.70;;;11.10;99.90;;;;;;5039715;28;20697;-94
2021/05/26 12:11:29;;;;;;;2.73;1.03;;;11.10;99.90;;;;;;5055169;28;20350;-93
2021/05/26 12:14:01;;;;;;;1.80;0.70;;;11.00;99.90;;;;;;5038954;28;20213;-95
2021/05/26 12:16:32;;;;;;;0.90;0.63;;;11.00;99.90;;;;;;5055146;28;20208;-95
2021/05/26 12:19:04;;;;;;;3.00;0.80;;;11.00;99.90;;;;;;5059965;28;20201;-95
2021/05/26 12:21:35;;;;;;;1.83;0.70;;;11.00;99.90;;;;;;5042641;28;20227;-95
2021/05/26 12:24:14;;;;;;;1.10;0.50;;;11.00;99.90;;;;;;5060045;28;20286;-95
2021/05/26 12:26:48;;;;;;;1.07;0.53;;;11.00;99.90;;;;;;5049305;28;20281;-94
2021/05/26 12:29:26;;;;;;;1.83;0.70;;;10.90;99.90;;;;;;5049958;28;20271;-95
2021/05/26 12:31:58;;;;;;;1.43;0.80;;;10.90;99.90;;;;;;5049448;28;20260;-95
2021/05/26 12:34:30;;;;;;;0.90;0.67;;;10.90;99.90;;;;;;5049046;28;20205;-95
2021/05/26 12:37:04;;;;;;;1.07;0.70;;;11.00;99.90;;;;;;5047730;28;20217;-94
2021/05/26 12:39:44;;;;;;;1.77;0.70;;;10.90;99.90;;;;;;5039809;28;20673;-94
2021/05/26 12:42:15;;;;;;;0.80;0.70;;;10.90;99.90;;;;;;5024968;28;20263;-95
2021/05/26 12:44:46;;;;;;;1.50;0.63;;;11.00;99.90;;;;;;5019587;28;20316;-95
2021/05/26 12:47:19;;;;;;;2.57;0.80;;;11.00;99.90;;;;;;5019149;28;20213;-95
2021/05/26 12:49:51;;;;;;;2.50;0.90;;;11.00;99.90;;;;;;5019240;28;20210;-95
2021/05/26 12:52:28;;;;;;;1.93;0.60;;;11.00;99.90;;;;;;5020465;28;20245;-95
2021/05/26 12:55:07;;;;;;;1.83;0.80;;;11.00;99.90;;;;;;5019172;28;20227;-94
2021/05/26 12:57:39;;;;;;;1.60;0.80;;;11.00;99.90;;;;;;5019821;28;20244;-95
2021/05/26 13:00:13;;;;;;;3.90;0.73;;;11.00;99.90;;;;;;5002824;28;20228;-95
2021/05/26 13:02:46;;;;;;;1.27;0.67;;;11.00;99.90;;;;;;5019642;28;20213;-94
2021/05/26 13:05:18;;;;;;;0.70;0.57;;;11.00;99.90;;;;;;5020312;28;20630;-95
2021/05/26 13:07:50;;;;;;;1.43;0.77;;;11.00;99.90;;;;;;5038655;28;20249;-94
2021/05/26 13:10:25;;;;;;;2.47;0.60;;;11.00;99.90;;;;;;5038966;28;20287;-94
2021/05/26 13:12:56;;;;;;;1.03;0.50;;;11.10;99.90;;;;;;5034242;28;20233;-95
2021/05/26 13:15:33;;;;;;;1.00;0.60;;;11.10;99.90;;;;;;5034792;28;20262;-94
2021/05/26 13:18:05;;;;;;;2.50;0.73;;;11.10;99.90;;;;;;5038099;28;20206;-93
2021/05/26 13:20:37;;;;;;;2.87;0.80;;;11.10;99.90;;;;;;5034270;28;20214;-93
2021/05/26 13:23:10;;;;;;;1.63;0.63;;;11.20;99.90;;;;;;5034230;28;20244;-95